sensor_id;sensor_type;location;lat;lon;timestamp;P1;durP1;ratioP1;P2;durP2;ratioP2
39256;SDS011;24958;48.066;11.038;2022-09-01T00:00:49;20.48;;;18.38;;
39256;SDS011;24958;48.066;11.038;2022-09-01T00:03:16;19.77;;;17.83;;
39256;SDS011;24958;48.066;11.038;2022-09-01T00:05:43;20.02;;;18.13;;
39256;SDS011;24958;48.066;11.038;2022-09-01T00:08:10;20.15;;;18.25;;
39256;SDS011;24958;48.066;11.038;2022-09-01T00:10:36;20.95;;;18.77;;
39256;SDS011;24958;48.066;11.038;2022-09-01T00:13:03;20.35;;;18.35;;
39256;SDS011;24958;48.066;11.038;2022-09-01T00:15:31;21.30;;;19.20;;
39256;SDS011;24958;48.066;11.038;2022-09-01T00:17:57;21.58;;;19.38;;
39256;SDS011;24958;48.066;11.038;2022-09-01T00:20:23;20.98;;;18.98;;
39256;SDS011;24958;48.066;11.038;2022-09-01T00:22:49;20.83;;;18.83;;
39256;SDS011;24958;48.066;11.038;2022-09-01T00:25:16;21.52;;;19.42;;
39256;SDS011;24958;48.066;11.038;2022-09-01T00:27:44;22.67;;;20.30;;
39256;SDS011;24958;48.066;11.038;2022-09-01T00:30:10;23.10;;;20.67;;
39256;SDS011;24958;48.066;11.038;2022-09-01T00:32:36;21.63;;;19.52;;
39256;SDS011;24958;48.066;11.038;2022-09-01T00:35:02;21.95;;;19.73;;
39256;SDS011;24958;48.066;11.038;2022-09-01T00:37:29;23.00;;;20.60;;
39256;SDS011;24958;48.066;11.038;2022-09-01T00:39:55;20.83;;;18.85;;
39256;SDS011;24958;48.066;11.038;2022-09-01T00:42:21;25.23;;;21.58;;
39256;SDS011;24958;48.066;11.038;2022-09-01T00:44:47;24.63;;;22.27;;
39256;SDS011;24958;48.066;11.038;2022-09-01T00:47:13;24.33;;;21.73;;
39256;SDS011;24958;48.066;11.038;2022-09-01T00:49:40;22.63;;;20.23;;
39256;SDS011;24958;48.066;11.038;2022-09-01T00:54:35;22.60;;;20.45;;
39256;SDS011;24958;48.066;11.038;2022-09-01T00:57:03;23.02;;;20.63;;
39256;SDS011;24958;48.066;11.038;2022-09-01T00:59:29;22.58;;;20.38;;
39256;SDS011;24958;48.066;11.038;2022-09-01T01:01:56;22.52;;;20.23;;
39256;SDS011;24958;48.066;11.038;2022-09-01T01:04:22;21.27;;;19.08;;
39256;SDS011;24958;48.066;11.038;2022-09-01T01:06:50;21.83;;;19.63;;
39256;SDS011;24958;48.066;11.038;2022-09-01T01:09:22;20.67;;;18.58;;
39256;SDS011;24958;48.066;11.038;2022-09-01T01:11:49;21.88;;;19.63;;
39256;SDS011;24958;48.066;11.038;2022-09-01T01:14:16;21.60;;;19.27;;
39256;SDS011;24958;48.066;11.038;2022-09-01T01:16:44;22.58;;;20.27;;
39256;SDS011;24958;48.066;11.038;2022-09-01T01:19:15;21.70;;;19.60;;
39256;SDS011;24958;48.066;11.038;2022-09-01T01:22:03;21.73;;;19.55;;
39256;SDS011;24958;48.066;11.038;2022-09-01T01:24:49;22.73;;;20.13;;
39256;SDS011;24958;48.066;11.038;2022-09-01T01:27:16;22.10;;;19.92;;
39256;SDS011;24958;48.066;11.038;2022-09-01T01:29:45;21.25;;;19.10;;
39256;SDS011;24958;48.066;11.038;2022-09-01T01:32:12;22.15;;;19.88;;
39256;SDS011;24958;48.066;11.038;2022-09-01T01:34:39;21.52;;;19.42;;
39256;SDS011;24958;48.066;11.038;2022-09-01T01:37:06;21.13;;;19.02;;
39256;SDS011;24958;48.066;11.038;2022-09-01T01:39:35;22.17;;;20.02;;
39256;SDS011;24958;48.066;11.038;2022-09-01T01:42:04;20.73;;;18.67;;
39256;SDS011;24958;48.066;11.038;2022-09-01T01:44:33;22.05;;;19.75;;
39256;SDS011;24958;48.066;11.038;2022-09-01T01:47:01;19.60;;;17.67;;
39256;SDS011;24958;48.066;11.038;2022-09-01T01:49:32;20.67;;;18.60;;
39256;SDS011;24958;48.066;11.038;2022-09-01T01:51:58;19.17;;;17.42;;
39256;SDS011;24958;48.066;11.038;2022-09-01T01:54:25;19.40;;;17.50;;
39256;SDS011;24958;48.066;11.038;2022-09-01T01:56:53;18.13;;;16.42;;
39256;SDS011;24958;48.066;11.038;2022-09-01T01:59:22;17.10;;;15.50;;
39256;SDS011;24958;48.066;11.038;2022-09-01T02:01:48;18.20;;;16.48;;
39256;SDS011;24958;48.066;11.038;2022-09-01T02:04:15;18.08;;;16.38;;
39256;SDS011;24958;48.066;11.038;2022-09-01T02:06:42;16.75;;;15.25;;
39256;SDS011;24958;48.066;11.038;2022-09-01T02:09:10;18.80;;;16.95;;
39256;SDS011;24958;48.066;11.038;2022-09-01T02:11:36;17.67;;;16.02;;
39256;SDS011;24958;48.066;11.038;2022-09-01T02:14:02;17.98;;;16.20;;
39256;SDS011;24958;48.066;11.038;2022-09-01T02:16:29;18.63;;;16.83;;
39256;SDS011;24958;48.066;11.038;2022-09-01T02:18:56;17.58;;;15.77;;
39256;SDS011;24958;48.066;11.038;2022-09-01T02:21:23;16.40;;;14.75;;
39256;SDS011;24958;48.066;11.038;2022-09-01T02:24:00;16.35;;;14.85;;
39256;SDS011;24958;48.066;11.038;2022-09-01T02:26:28;17.25;;;15.65;;
39256;SDS011;24958;48.066;11.038;2022-09-01T02:28:56;17.30;;;15.70;;
39256;SDS011;24958;48.066;11.038;2022-09-01T02:31:23;17.08;;;15.50;;
39256;SDS011;24958;48.066;11.038;2022-09-01T02:33:51;17.58;;;15.88;;
39256;SDS011;24958;48.066;11.038;2022-09-01T02:36:18;17.77;;;16.00;;
39256;SDS011;24958;48.066;11.038;2022-09-01T02:38:44;17.75;;;15.98;;
39256;SDS011;24958;48.066;11.038;2022-09-01T02:41:12;17.58;;;15.90;;
39256;SDS011;24958;48.066;11.038;2022-09-01T02:43:38;17.58;;;15.93;;
39256;SDS011;24958;48.066;11.038;2022-09-01T02:46:07;18.25;;;16.55;;
39256;SDS011;24958;48.066;11.038;2022-09-01T02:48:37;17.40;;;15.70;;
39256;SDS011;24958;48.066;11.038;2022-09-01T02:51:04;19.17;;;17.35;;
39256;SDS011;24958;48.066;11.038;2022-09-01T02:53:31;18.83;;;16.98;;
39256;SDS011;24958;48.066;11.038;2022-09-01T02:55:58;19.10;;;17.25;;
39256;SDS011;24958;48.066;11.038;2022-09-01T02:58:25;16.70;;;15.00;;
39256;SDS011;24958;48.066;11.038;2022-09-01T03:00:52;18.83;;;17.02;;
39256;SDS011;24958;48.066;11.038;2022-09-01T03:03:18;19.52;;;17.52;;
39256;SDS011;24958;48.066;11.038;2022-09-01T03:05:45;17.73;;;16.02;;
39256;SDS011;24958;48.066;11.038;2022-09-01T03:08:11;18.38;;;16.63;;
39256;SDS011;24958;48.066;11.038;2022-09-01T03:10:40;19.05;;;17.17;;
39256;SDS011;24958;48.066;11.038;2022-09-01T03:13:10;19.67;;;17.67;;
39256;SDS011;24958;48.066;11.038;2022-09-01T03:15:37;19.58;;;17.58;;
39256;SDS011;24958;48.066;11.038;2022-09-01T03:18:04;18.77;;;17.05;;
39256;SDS011;24958;48.066;11.038;2022-09-01T03:20:31;19.00;;;17.20;;
39256;SDS011;24958;48.066;11.038;2022-09-01T03:22:58;19.45;;;17.55;;
39256;SDS011;24958;48.066;11.038;2022-09-01T03:25:24;19.38;;;17.52;;
39256;SDS011;24958;48.066;11.038;2022-09-01T03:27:51;19.35;;;17.45;;
39256;SDS011;24958;48.066;11.038;2022-09-01T03:30:18;20.38;;;18.38;;
39256;SDS011;24958;48.066;11.038;2022-09-01T03:32:44;20.77;;;18.67;;
39256;SDS011;24958;48.066;11.038;2022-09-01T03:35:10;20.85;;;18.73;;
39256;SDS011;24958;48.066;11.038;2022-09-01T03:37:36;20.65;;;18.60;;
39256;SDS011;24958;48.066;11.038;2022-09-01T03:40:04;20.55;;;18.50;;
39256;SDS011;24958;48.066;11.038;2022-09-01T03:42:30;20.48;;;18.45;;
39256;SDS011;24958;48.066;11.038;2022-09-01T03:44:56;20.45;;;18.48;;
39256;SDS011;24958;48.066;11.038;2022-09-01T03:47:23;21.20;;;19.08;;
39256;SDS011;24958;48.066;11.038;2022-09-01T03:49:49;21.10;;;18.92;;
39256;SDS011;24958;48.066;11.038;2022-09-01T03:52:16;22.92;;;19.58;;
39256;SDS011;24958;48.066;11.038;2022-09-01T03:54:42;22.42;;;20.13;;
39256;SDS011;24958;48.066;11.038;2022-09-01T03:57:10;22.38;;;20.08;;
39256;SDS011;24958;48.066;11.038;2022-09-01T03:59:36;21.88;;;19.67;;
39256;SDS011;24958;48.066;11.038;2022-09-01T04:02:07;23.20;;;20.80;;
39256;SDS011;24958;48.066;11.038;2022-09-01T04:04:33;22.10;;;19.73;;
39256;SDS011;24958;48.066;11.038;2022-09-01T04:06:59;23.95;;;21.38;;
39256;SDS011;24958;48.066;11.038;2022-09-01T04:09:25;24.40;;;21.80;;
39256;SDS011;24958;48.066;11.038;2022-09-01T04:11:51;23.67;;;21.17;;
39256;SDS011;24958;48.066;11.038;2022-09-01T04:14:17;25.08;;;22.02;;
39256;SDS011;24958;48.066;11.038;2022-09-01T04:16:44;23.67;;;21.05;;
39256;SDS011;24958;48.066;11.038;2022-09-01T04:19:31;25.15;;;22.45;;
39256;SDS011;24958;48.066;11.038;2022-09-01T04:22:00;26.05;;;22.95;;
39256;SDS011;24958;48.066;11.038;2022-09-01T04:24:27;26.33;;;22.83;;
39256;SDS011;24958;48.066;11.038;2022-09-01T04:26:57;30.63;;;24.23;;
39256;SDS011;24958;48.066;11.038;2022-09-01T04:29:25;28.25;;;22.83;;
39256;SDS011;24958;48.066;11.038;2022-09-01T04:31:52;25.90;;;22.02;;
39256;SDS011;24958;48.066;11.038;2022-09-01T04:34:19;23.95;;;21.45;;
39256;SDS011;24958;48.066;11.038;2022-09-01T04:36:46;25.00;;;22.17;;
39256;SDS011;24958;48.066;11.038;2022-09-01T04:39:12;23.27;;;20.85;;
39256;SDS011;24958;48.066;11.038;2022-09-01T04:41:40;29.30;;;23.13;;
39256;SDS011;24958;48.066;11.038;2022-09-01T04:44:06;24.45;;;21.08;;
39256;SDS011;24958;48.066;11.038;2022-09-01T04:46:34;23.98;;;21.20;;
39256;SDS011;24958;48.066;11.038;2022-09-01T04:49:01;23.85;;;21.25;;
39256;SDS011;24958;48.066;11.038;2022-09-01T04:51:32;24.27;;;21.67;;
39256;SDS011;24958;48.066;11.038;2022-09-01T04:54:00;24.48;;;21.10;;
39256;SDS011;24958;48.066;11.038;2022-09-01T04:56:26;23.75;;;20.92;;
39256;SDS011;24958;48.066;11.038;2022-09-01T04:58:59;23.15;;;20.73;;
39256;SDS011;24958;48.066;11.038;2022-09-01T05:01:26;21.90;;;19.58;;
39256;SDS011;24958;48.066;11.038;2022-09-01T05:03:53;21.10;;;18.75;;
39256;SDS011;24958;48.066;11.038;2022-09-01T05:06:26;20.83;;;18.63;;
39256;SDS011;24958;48.066;11.038;2022-09-01T05:08:52;21.98;;;19.70;;
39256;SDS011;24958;48.066;11.038;2022-09-01T05:11:20;21.52;;;19.33;;
39256;SDS011;24958;48.066;11.038;2022-09-01T05:13:47;21.08;;;18.88;;
39256;SDS011;24958;48.066;11.038;2022-09-01T05:16:14;20.92;;;18.27;;
39256;SDS011;24958;48.066;11.038;2022-09-01T05:18:43;21.40;;;19.30;;
39256;SDS011;24958;48.066;11.038;2022-09-01T05:21:11;19.58;;;17.58;;
39256;SDS011;24958;48.066;11.038;2022-09-01T05:23:38;21.65;;;19.35;;
39256;SDS011;24958;48.066;11.038;2022-09-01T05:26:05;21.38;;;19.17;;
39256;SDS011;24958;48.066;11.038;2022-09-01T05:28:39;20.67;;;18.58;;
39256;SDS011;24958;48.066;11.038;2022-09-01T05:31:05;22.23;;;19.88;;
39256;SDS011;24958;48.066;11.038;2022-09-01T05:33:31;21.38;;;18.35;;
39256;SDS011;24958;48.066;11.038;2022-09-01T05:36:01;19.50;;;17.60;;
39256;SDS011;24958;48.066;11.038;2022-09-01T05:38:32;20.05;;;17.98;;
39256;SDS011;24958;48.066;11.038;2022-09-01T05:40:59;19.60;;;17.55;;
39256;SDS011;24958;48.066;11.038;2022-09-01T05:43:31;18.83;;;16.92;;
39256;SDS011;24958;48.066;11.038;2022-09-01T05:45:57;19.73;;;17.60;;
39256;SDS011;24958;48.066;11.038;2022-09-01T05:48:25;19.65;;;17.65;;
39256;SDS011;24958;48.066;11.038;2022-09-01T05:50:52;19.33;;;17.40;;
39256;SDS011;24958;48.066;11.038;2022-09-01T05:53:22;19.38;;;17.33;;
39256;SDS011;24958;48.066;11.038;2022-09-01T05:55:49;19.75;;;17.73;;
39256;SDS011;24958;48.066;11.038;2022-09-01T05:58:18;18.02;;;16.20;;
39256;SDS011;24958;48.066;11.038;2022-09-01T06:00:45;18.50;;;16.63;;
39256;SDS011;24958;48.066;11.038;2022-09-01T06:03:13;18.13;;;16.23;;
39256;SDS011;24958;48.066;11.038;2022-09-01T06:05:41;18.33;;;15.95;;
39256;SDS011;24958;48.066;11.038;2022-09-01T06:08:09;18.15;;;16.25;;
39256;SDS011;24958;48.066;11.038;2022-09-01T06:10:38;17.00;;;15.20;;
39256;SDS011;24958;48.066;11.038;2022-09-01T06:13:08;19.55;;;15.30;;
39256;SDS011;24958;48.066;11.038;2022-09-01T06:15:35;15.65;;;14.15;;
39256;SDS011;24958;48.066;11.038;2022-09-01T06:18:03;15.93;;;14.38;;
39256;SDS011;24958;48.066;11.038;2022-09-01T06:20:30;16.27;;;14.65;;
39256;SDS011;24958;48.066;11.038;2022-09-01T06:22:55;15.98;;;14.38;;
39256;SDS011;24958;48.066;11.038;2022-09-01T06:25:22;14.68;;;13.27;;
39256;SDS011;24958;48.066;11.038;2022-09-01T06:27:50;14.65;;;13.25;;
39256;SDS011;24958;48.066;11.038;2022-09-01T06:30:18;14.45;;;13.20;;
39256;SDS011;24958;48.066;11.038;2022-09-01T06:32:48;13.40;;;12.13;;
39256;SDS011;24958;48.066;11.038;2022-09-01T06:35:15;14.32;;;13.02;;
39256;SDS011;24958;48.066;11.038;2022-09-01T06:37:42;13.93;;;12.55;;
39256;SDS011;24958;48.066;11.038;2022-09-01T06:40:09;14.52;;;13.15;;
39256;SDS011;24958;48.066;11.038;2022-09-01T06:42:41;13.68;;;12.40;;
39256;SDS011;24958;48.066;11.038;2022-09-01T06:45:08;13.65;;;12.40;;
39256;SDS011;24958;48.066;11.038;2022-09-01T06:47:34;13.05;;;11.95;;
39256;SDS011;24958;48.066;11.038;2022-09-01T06:50:01;12.90;;;11.68;;
39256;SDS011;24958;48.066;11.038;2022-09-01T06:52:26;13.60;;;12.18;;
39256;SDS011;24958;48.066;11.038;2022-09-01T06:54:52;12.98;;;11.77;;
39256;SDS011;24958;48.066;11.038;2022-09-01T06:57:19;12.32;;;11.23;;
39256;SDS011;24958;48.066;11.038;2022-09-01T06:59:46;12.13;;;11.02;;
39256;SDS011;24958;48.066;11.038;2022-09-01T07:02:13;11.90;;;10.90;;
39256;SDS011;24958;48.066;11.038;2022-09-01T07:04:40;12.38;;;11.20;;
39256;SDS011;24958;48.066;11.038;2022-09-01T07:07:10;11.50;;;10.50;;
39256;SDS011;24958;48.066;11.038;2022-09-01T07:09:37;11.55;;;10.57;;
39256;SDS011;24958;48.066;11.038;2022-09-01T07:12:03;11.55;;;10.55;;
39256;SDS011;24958;48.066;11.038;2022-09-01T07:14:29;12.02;;;11.02;;
39256;SDS011;24958;48.066;11.038;2022-09-01T07:16:56;12.25;;;11.15;;
39256;SDS011;24958;48.066;11.038;2022-09-01T07:19:22;11.52;;;10.60;;
39256;SDS011;24958;48.066;11.038;2022-09-01T07:21:50;11.10;;;10.10;;
39256;SDS011;24958;48.066;11.038;2022-09-01T07:24:16;10.07;;;9.18;;
39256;SDS011;24958;48.066;11.038;2022-09-01T07:26:44;10.40;;;9.43;;
39256;SDS011;24958;48.066;11.038;2022-09-01T07:29:15;10.05;;;9.25;;
39256;SDS011;24958;48.066;11.038;2022-09-01T07:31:42;10.57;;;9.73;;
39256;SDS011;24958;48.066;11.038;2022-09-01T07:34:09;11.23;;;10.32;;
39256;SDS011;24958;48.066;11.038;2022-09-01T07:36:37;10.20;;;9.40;;
39256;SDS011;24958;48.066;11.038;2022-09-01T07:39:03;9.75;;;8.95;;
39256;SDS011;24958;48.066;11.038;2022-09-01T07:41:30;10.60;;;9.80;;
39256;SDS011;24958;48.066;11.038;2022-09-01T07:43:58;9.98;;;9.18;;
39256;SDS011;24958;48.066;11.038;2022-09-01T07:46:25;10.07;;;9.18;;
39256;SDS011;24958;48.066;11.038;2022-09-01T07:48:53;10.88;;;9.98;;
39256;SDS011;24958;48.066;11.038;2022-09-01T07:51:19;10.93;;;10.02;;
39256;SDS011;24958;48.066;11.038;2022-09-01T07:53:46;10.95;;;9.95;;
39256;SDS011;24958;48.066;11.038;2022-09-01T07:56:14;10.00;;;9.25;;
39256;SDS011;24958;48.066;11.038;2022-09-01T07:58:42;10.23;;;9.35;;
39256;SDS011;24958;48.066;11.038;2022-09-01T08:01:13;10.98;;;10.07;;
39256;SDS011;24958;48.066;11.038;2022-09-01T08:03:41;11.43;;;10.43;;
39256;SDS011;24958;48.066;11.038;2022-09-01T08:06:08;11.30;;;10.40;;
39256;SDS011;24958;48.066;11.038;2022-09-01T08:08:35;10.85;;;9.95;;
39256;SDS011;24958;48.066;11.038;2022-09-01T08:11:01;11.15;;;10.25;;
39256;SDS011;24958;48.066;11.038;2022-09-01T08:13:28;11.70;;;10.70;;
39256;SDS011;24958;48.066;11.038;2022-09-01T08:15:54;11.20;;;10.20;;
39256;SDS011;24958;48.066;11.038;2022-09-01T08:18:20;11.68;;;10.60;;
39256;SDS011;24958;48.066;11.038;2022-09-01T08:20:46;11.52;;;10.52;;
39256;SDS011;24958;48.066;11.038;2022-09-01T08:23:13;11.15;;;10.25;;
39256;SDS011;24958;48.066;11.038;2022-09-01T08:25:39;11.68;;;10.73;;
39256;SDS011;24958;48.066;11.038;2022-09-01T08:28:06;10.73;;;9.85;;
39256;SDS011;24958;48.066;11.038;2022-09-01T08:30:33;11.70;;;10.70;;
39256;SDS011;24958;48.066;11.038;2022-09-01T08:33:00;11.27;;;10.38;;
39256;SDS011;24958;48.066;11.038;2022-09-01T08:35:26;12.07;;;10.98;;
39256;SDS011;24958;48.066;11.038;2022-09-01T08:37:56;11.93;;;10.93;;
39256;SDS011;24958;48.066;11.038;2022-09-01T08:40:22;10.90;;;10.02;;
39256;SDS011;24958;48.066;11.038;2022-09-01T08:47:54;10.68;;;9.85;;
39256;SDS011;24958;48.066;11.038;2022-09-01T08:50:22;10.05;;;9.25;;
39256;SDS011;24958;48.066;11.038;2022-09-01T08:53:00;10.50;;;9.70;;
39256;SDS011;24958;48.066;11.038;2022-09-01T08:55:35;10.38;;;9.57;;
39256;SDS011;24958;48.066;11.038;2022-09-01T08:58:04;9.15;;;8.40;;
39256;SDS011;24958;48.066;11.038;2022-09-01T09:00:33;10.15;;;9.35;;
39256;SDS011;24958;48.066;11.038;2022-09-01T09:03:11;10.18;;;9.38;;
39256;SDS011;24958;48.066;11.038;2022-09-01T09:05:46;10.32;;;9.52;;
39256;SDS011;24958;48.066;11.038;2022-09-01T09:11:00;8.93;;;8.23;;
39256;SDS011;24958;48.066;11.038;2022-09-01T09:18:43;10.48;;;9.57;;
39256;SDS011;24958;48.066;11.038;2022-09-01T09:21:17;8.52;;;7.90;;
39256;SDS011;24958;48.066;11.038;2022-09-01T09:23:45;10.32;;;9.48;;
39256;SDS011;24958;48.066;11.038;2022-09-01T09:26:13;8.82;;;8.13;;
39256;SDS011;24958;48.066;11.038;2022-09-01T09:28:39;8.93;;;8.23;;
39256;SDS011;24958;48.066;11.038;2022-09-01T09:33:49;8.60;;;7.90;;
39256;SDS011;24958;48.066;11.038;2022-09-01T09:36:20;9.40;;;8.63;;
39256;SDS011;24958;48.066;11.038;2022-09-01T09:38:46;7.55;;;7.05;;
39256;SDS011;24958;48.066;11.038;2022-09-01T09:41:19;9.07;;;8.27;;
39256;SDS011;24958;48.066;11.038;2022-09-01T09:43:48;7.97;;;7.38;;
39256;SDS011;24958;48.066;11.038;2022-09-01T09:49:06;7.30;;;6.80;;
39256;SDS011;24958;48.066;11.038;2022-09-01T09:51:32;7.78;;;7.07;;
39256;SDS011;24958;48.066;11.038;2022-09-01T09:56:43;7.35;;;6.75;;
39256;SDS011;24958;48.066;11.038;2022-09-01T09:59:16;7.60;;;7.00;;
39256;SDS011;24958;48.066;11.038;2022-09-01T10:01:42;8.65;;;7.95;;
39256;SDS011;24958;48.066;11.038;2022-09-01T10:04:08;7.03;;;6.53;;
39256;SDS011;24958;48.066;11.038;2022-09-01T10:06:43;8.35;;;7.70;;
39256;SDS011;24958;48.066;11.038;2022-09-01T10:11:50;9.27;;;8.48;;
39256;SDS011;24958;48.066;11.038;2022-09-01T10:14:21;9.32;;;8.55;;
39256;SDS011;24958;48.066;11.038;2022-09-01T10:16:49;7.72;;;7.13;;
39256;SDS011;24958;48.066;11.038;2022-09-01T10:19:17;8.35;;;7.75;;
39256;SDS011;24958;48.066;11.038;2022-09-01T10:21:44;7.88;;;7.07;;
39256;SDS011;24958;48.066;11.038;2022-09-01T10:24:18;8.13;;;7.40;;
39256;SDS011;24958;48.066;11.038;2022-09-01T10:26:47;7.55;;;6.95;;
39256;SDS011;24958;48.066;11.038;2022-09-01T10:31:45;7.70;;;7.10;;
39256;SDS011;24958;48.066;11.038;2022-09-01T10:34:12;7.40;;;6.82;;
39256;SDS011;24958;48.066;11.038;2022-09-01T10:36:40;7.50;;;6.80;;
39256;SDS011;24958;48.066;11.038;2022-09-01T10:39:11;6.50;;;6.10;;
39256;SDS011;24958;48.066;11.038;2022-09-01T10:44:10;7.35;;;6.75;;
39256;SDS011;24958;48.066;11.038;2022-09-01T10:49:12;6.00;;;5.47;;
39256;SDS011;24958;48.066;11.038;2022-09-01T10:51:43;6.47;;;5.97;;
39256;SDS011;24958;48.066;11.038;2022-09-01T10:54:27;6.13;;;5.63;;
39256;SDS011;24958;48.066;11.038;2022-09-01T10:56:55;6.03;;;5.63;;
39256;SDS011;24958;48.066;11.038;2022-09-01T10:59:25;6.60;;;6.10;;
39256;SDS011;24958;48.066;11.038;2022-09-01T11:04:23;6.40;;;5.90;;
39256;SDS011;24958;48.066;11.038;2022-09-01T11:07:12;5.95;;;5.47;;
39256;SDS011;24958;48.066;11.038;2022-09-01T11:15:51;7.47;;;6.78;;
39256;SDS011;24958;48.066;11.038;2022-09-01T11:17:55;6.85;;;6.35;;
39256;SDS011;24958;48.066;11.038;2022-09-01T11:20:25;6.70;;;6.20;;
39256;SDS011;24958;48.066;11.038;2022-09-01T11:23:05;7.65;;;6.95;;
39256;SDS011;24958;48.066;11.038;2022-09-01T11:28:09;6.50;;;6.00;;
39256;SDS011;24958;48.066;11.038;2022-09-01T11:35:43;5.97;;;5.57;;
39256;SDS011;24958;48.066;11.038;2022-09-01T11:38:10;7.72;;;7.13;;
39256;SDS011;24958;48.066;11.038;2022-09-01T11:40:37;7.22;;;6.63;;
39256;SDS011;24958;48.066;11.038;2022-09-01T11:43:07;6.78;;;6.28;;
39256;SDS011;24958;48.066;11.038;2022-09-01T11:45:36;7.97;;;7.35;;
39256;SDS011;24958;48.066;11.038;2022-09-01T11:48:07;6.90;;;6.38;;
39256;SDS011;24958;48.066;11.038;2022-09-01T11:50:35;7.90;;;7.22;;
39256;SDS011;24958;48.066;11.038;2022-09-01T11:55:31;7.20;;;6.60;;
39256;SDS011;24958;48.066;11.038;2022-09-01T11:57:58;7.25;;;6.65;;
39256;SDS011;24958;48.066;11.038;2022-09-01T12:00:31;7.05;;;6.45;;
39256;SDS011;24958;48.066;11.038;2022-09-01T12:03:00;6.10;;;5.60;;
39256;SDS011;24958;48.066;11.038;2022-09-01T12:05:31;6.40;;;5.90;;
39256;SDS011;24958;48.066;11.038;2022-09-01T12:07:58;6.50;;;5.97;;
39256;SDS011;24958;48.066;11.038;2022-09-01T12:13:27;4.93;;;4.63;;
39256;SDS011;24958;48.066;11.038;2022-09-01T12:15:52;5.50;;;5.00;;
39256;SDS011;24958;48.066;11.038;2022-09-01T12:18:20;5.30;;;4.90;;
39256;SDS011;24958;48.066;11.038;2022-09-01T12:20:47;4.60;;;4.22;;
39256;SDS011;24958;48.066;11.038;2022-09-01T12:26:02;4.78;;;4.38;;
39256;SDS011;24958;48.066;11.038;2022-09-01T12:28:29;4.68;;;4.18;;
39256;SDS011;24958;48.066;11.038;2022-09-01T12:30:59;5.05;;;4.65;;
39256;SDS011;24958;48.066;11.038;2022-09-01T12:33:26;5.18;;;4.78;;
39256;SDS011;24958;48.066;11.038;2022-09-01T12:36:11;5.38;;;4.60;;
39256;SDS011;24958;48.066;11.038;2022-09-01T12:38:37;4.55;;;4.10;;
39256;SDS011;24958;48.066;11.038;2022-09-01T12:41:15;4.20;;;3.90;;
39256;SDS011;24958;48.066;11.038;2022-09-01T12:43:47;3.97;;;3.60;;
39256;SDS011;24958;48.066;11.038;2022-09-01T12:46:38;3.85;;;3.58;;
39256;SDS011;24958;48.066;11.038;2022-09-01T12:49:15;3.60;;;3.30;;
39256;SDS011;24958;48.066;11.038;2022-09-01T12:51:42;3.75;;;3.55;;
39256;SDS011;24958;48.066;11.038;2022-09-01T12:54:12;3.72;;;3.42;;
39256;SDS011;24958;48.066;11.038;2022-09-01T12:56:38;3.85;;;3.40;;
39256;SDS011;24958;48.066;11.038;2022-09-01T12:59:11;4.18;;;3.78;;
39256;SDS011;24958;48.066;11.038;2022-09-01T13:01:38;4.03;;;3.72;;
39256;SDS011;24958;48.066;11.038;2022-09-01T13:04:22;4.05;;;3.72;;
39256;SDS011;24958;48.066;11.038;2022-09-01T13:06:49;3.70;;;3.50;;
39256;SDS011;24958;48.066;11.038;2022-09-01T13:09:15;3.55;;;3.25;;
39256;SDS011;24958;48.066;11.038;2022-09-01T13:11:41;4.07;;;3.70;;
39256;SDS011;24958;48.066;11.038;2022-09-01T13:14:08;3.80;;;3.50;;
39256;SDS011;24958;48.066;11.038;2022-09-01T13:16:34;3.75;;;3.47;;
39256;SDS011;24958;48.066;11.038;2022-09-01T13:19:01;4.00;;;3.60;;
39256;SDS011;24958;48.066;11.038;2022-09-01T13:21:27;4.13;;;3.78;;
39256;SDS011;24958;48.066;11.038;2022-09-01T13:23:54;4.05;;;3.65;;
39256;SDS011;24958;48.066;11.038;2022-09-01T13:26:20;4.10;;;3.80;;
39256;SDS011;24958;48.066;11.038;2022-09-01T13:28:46;4.00;;;3.70;;
39256;SDS011;24958;48.066;11.038;2022-09-01T13:31:12;3.65;;;3.45;;
39256;SDS011;24958;48.066;11.038;2022-09-01T13:33:38;3.67;;;3.38;;
39256;SDS011;24958;48.066;11.038;2022-09-01T13:36:04;3.53;;;3.22;;
39256;SDS011;24958;48.066;11.038;2022-09-01T13:38:30;3.65;;;3.35;;
39256;SDS011;24958;48.066;11.038;2022-09-01T13:40:57;3.55;;;3.28;;
39256;SDS011;24958;48.066;11.038;2022-09-01T13:43:24;4.00;;;3.70;;
39256;SDS011;24958;48.066;11.038;2022-09-01T13:45:53;3.60;;;3.30;;
39256;SDS011;24958;48.066;11.038;2022-09-01T13:48:19;3.78;;;3.38;;
39256;SDS011;24958;48.066;11.038;2022-09-01T13:50:46;3.45;;;3.15;;
39256;SDS011;24958;48.066;11.038;2022-09-01T13:53:17;3.38;;;3.08;;
39256;SDS011;24958;48.066;11.038;2022-09-01T13:55:43;3.25;;;3.05;;
39256;SDS011;24958;48.066;11.038;2022-09-01T13:58:09;3.40;;;3.10;;
39256;SDS011;24958;48.066;11.038;2022-09-01T14:00:38;3.60;;;3.30;;
39256;SDS011;24958;48.066;11.038;2022-09-01T14:03:05;3.53;;;3.22;;
39256;SDS011;24958;48.066;11.038;2022-09-01T14:05:34;4.22;;;3.92;;
39256;SDS011;24958;48.066;11.038;2022-09-01T14:08:00;3.95;;;3.65;;
39256;SDS011;24958;48.066;11.038;2022-09-01T14:10:27;4.15;;;3.85;;
39256;SDS011;24958;48.066;11.038;2022-09-01T14:12:53;4.20;;;3.90;;
39256;SDS011;24958;48.066;11.038;2022-09-01T14:15:20;4.10;;;3.90;;
39256;SDS011;24958;48.066;11.038;2022-09-01T14:17:47;5.70;;;3.90;;
39256;SDS011;24958;48.066;11.038;2022-09-01T14:20:14;4.20;;;3.90;;
39256;SDS011;24958;48.066;11.038;2022-09-01T14:22:42;4.25;;;3.85;;
39256;SDS011;24958;48.066;11.038;2022-09-01T14:25:09;4.38;;;3.97;;
39256;SDS011;24958;48.066;11.038;2022-09-01T14:27:36;3.78;;;3.53;;
39256;SDS011;24958;48.066;11.038;2022-09-01T14:30:03;3.50;;;3.30;;
39256;SDS011;24958;48.066;11.038;2022-09-01T14:32:30;3.20;;;3.00;;
39256;SDS011;24958;48.066;11.038;2022-09-01T14:34:56;3.63;;;3.33;;
39256;SDS011;24958;48.066;11.038;2022-09-01T14:37:23;3.42;;;3.22;;
39256;SDS011;24958;48.066;11.038;2022-09-01T14:39:49;3.47;;;3.17;;
39256;SDS011;24958;48.066;11.038;2022-09-01T14:42:15;3.50;;;3.22;;
39256;SDS011;24958;48.066;11.038;2022-09-01T14:44:42;3.28;;;3.00;;
39256;SDS011;24958;48.066;11.038;2022-09-01T14:47:08;3.53;;;3.22;;
39256;SDS011;24958;48.066;11.038;2022-09-01T14:49:35;3.20;;;3.00;;
39256;SDS011;24958;48.066;11.038;2022-09-01T14:52:02;3.53;;;3.05;;
39256;SDS011;24958;48.066;11.038;2022-09-01T14:54:30;3.10;;;2.90;;
39256;SDS011;24958;48.066;11.038;2022-09-01T14:56:57;3.17;;;2.97;;
39256;SDS011;24958;48.066;11.038;2022-09-01T14:59:22;3.10;;;2.90;;
39256;SDS011;24958;48.066;11.038;2022-09-01T15:01:48;3.17;;;2.97;;
39256;SDS011;24958;48.066;11.038;2022-09-01T15:04:15;3.60;;;3.05;;
39256;SDS011;24958;48.066;11.038;2022-09-01T15:06:41;3.13;;;2.92;;
39256;SDS011;24958;48.066;11.038;2022-09-01T15:09:07;3.42;;;3.13;;
39256;SDS011;24958;48.066;11.038;2022-09-01T15:11:33;3.17;;;2.97;;
39256;SDS011;24958;48.066;11.038;2022-09-01T15:13:59;3.30;;;3.00;;
39256;SDS011;24958;48.066;11.038;2022-09-01T15:16:25;2.80;;;2.60;;
39256;SDS011;24958;48.066;11.038;2022-09-01T15:18:52;2.95;;;2.33;;
39256;SDS011;24958;48.066;11.038;2022-09-01T15:21:28;2.58;;;2.40;;